createdAt,value
2023-03-20T00:00:40.876Z,3.53
2023-03-20T00:03:14.247Z,2.83
2023-03-20T00:05:45.974Z,2.85
2023-03-20T00:08:17.889Z,3.50
2023-03-20T00:10:49.929Z,2.50
2023-03-20T00:13:30.540Z,2.83
2023-03-20T00:16:00.808Z,2.97
2023-03-20T00:18:31.054Z,1.83
2023-03-20T00:21:02.324Z,2.75
2023-03-20T00:23:34.425Z,2.97
2023-03-20T00:26:05.304Z,2.20
2023-03-20T00:28:44.238Z,2.20
2023-03-20T00:31:42.717Z,2.28
2023-03-20T00:34:21.553Z,1.45
2023-03-20T00:36:53.795Z,1.58
2023-03-20T00:39:25.845Z,1.25
2023-03-20T00:42:05.575Z,1.05
2023-03-20T00:44:42.519Z,1.05
2023-03-20T00:47:23.320Z,1.23
2023-03-20T00:49:56.395Z,0.50
2023-03-20T00:52:28.817Z,0.73
2023-03-20T00:54:59.499Z,0.82
2023-03-20T00:57:32.772Z,0.90
2023-03-20T01:00:09.289Z,0.70
2023-03-20T01:02:39.810Z,1.10
2023-03-20T01:05:12.186Z,0.90
2023-03-20T01:07:43.279Z,1.38
2023-03-20T01:10:14.950Z,1.02
2023-03-20T01:12:46.977Z,0.80
2023-03-20T01:15:25.604Z,0.45
2023-03-20T01:17:56.102Z,1.08
2023-03-20T01:20:35.605Z,1.52
2023-03-20T01:23:06.379Z,1.00
2023-03-20T01:25:37.222Z,1.80
2023-03-20T01:28:20.244Z,2.22
2023-03-20T01:30:51.533Z,1.90
2023-03-20T01:33:25.055Z,1.38
2023-03-20T01:35:55.734Z,2.47
2023-03-20T01:38:32.828Z,2.00
2023-03-20T01:41:18.635Z,1.60
2023-03-20T01:43:52.189Z,1.75
2023-03-20T01:46:33.386Z,1.15
2023-03-20T01:49:34.814Z,1.17
2023-03-20T01:52:05.802Z,1.58
2023-03-20T01:54:41.632Z,1.10
2023-03-20T01:57:19.348Z,0.90
2023-03-20T02:00:14.705Z,0.40
2023-03-20T02:02:49.416Z,0.40
2023-03-20T02:05:24.173Z,1.00
2023-03-20T02:08:30.720Z,0.50
2023-03-20T02:11:03.408Z,0.45
2023-03-20T02:13:35.047Z,0.57
2023-03-20T02:16:10.676Z,0.50
2023-03-20T02:18:44.191Z,1.08
2023-03-20T02:21:21.196Z,1.45
2023-03-20T02:24:35.943Z,0.50
2023-03-20T02:27:36.793Z,0.30
2023-03-20T02:30:32.688Z,0.30
2023-03-20T02:33:41.363Z,0.52
2023-03-20T02:36:44.224Z,0.40
2023-03-20T02:39:32.927Z,0.40
2023-03-20T02:42:14.502Z,0.82
2023-03-20T02:45:06.308Z,0.50
2023-03-20T02:47:59.156Z,0.40
2023-03-20T02:50:45.161Z,0.70
2023-03-20T02:53:34.677Z,0.43
2023-03-20T02:56:32.636Z,0.68
2023-03-20T02:59:27.995Z,0.50
2023-03-20T03:02:21.764Z,0.50
2023-03-20T03:05:32.868Z,0.60
2023-03-20T03:08:05.672Z,0.70
2023-03-20T03:10:49.497Z,0.60
2023-03-20T03:13:24.039Z,0.63
2023-03-20T03:15:57.785Z,0.60
2023-03-20T03:18:30.283Z,0.73
2023-03-20T03:21:02.943Z,0.90
2023-03-20T03:23:48.929Z,0.80
2023-03-20T03:26:24.917Z,0.90
2023-03-20T03:29:07.318Z,0.75
2023-03-20T03:31:40.052Z,0.70
2023-03-20T03:34:17.937Z,0.80
2023-03-20T03:36:48.565Z,0.63
2023-03-20T03:39:36.124Z,0.52
2023-03-20T03:42:13.121Z,0.90
2023-03-20T03:45:03.980Z,0.63
2023-03-20T03:47:42.010Z,0.60
2023-03-20T03:50:33.759Z,0.52
2023-03-20T03:53:09.887Z,0.70
2023-03-20T03:55:50.472Z,0.47
2023-03-20T03:58:33.691Z,0.70
2023-03-20T04:01:07.910Z,0.52
2023-03-20T04:03:42.633Z,0.65
2023-03-20T04:06:15.271Z,0.60
2023-03-20T04:08:46.356Z,0.50
2023-03-20T04:11:32.439Z,0.50
2023-03-20T04:14:02.657Z,0.50
2023-03-20T04:16:33.570Z,0.45
2023-03-20T04:19:05.016Z,0.70
2023-03-20T04:21:36.332Z,0.68
2023-03-20T04:24:06.987Z,0.50
2023-03-20T04:26:37.223Z,0.70
2023-03-20T04:29:07.454Z,0.60
2023-03-20T04:31:38.020Z,0.70
2023-03-20T04:34:09.355Z,0.70
2023-03-20T04:36:39.667Z,1.00
2023-03-20T04:39:09.983Z,0.85
2023-03-20T04:41:40.215Z,1.20
2023-03-20T04:44:11.254Z,1.17
2023-03-20T04:46:41.522Z,1.30
2023-03-20T04:49:12.034Z,1.15
2023-03-20T04:51:43.246Z,1.20
2023-03-20T04:54:13.929Z,1.25
2023-03-20T04:56:44.590Z,1.50
2023-03-20T04:59:15.759Z,1.10
2023-03-20T05:01:46.493Z,1.45
2023-03-20T05:04:17.262Z,1.60
2023-03-20T05:06:50.799Z,1.40
2023-03-20T05:09:21.950Z,1.30
2023-03-20T05:11:52.341Z,1.35
2023-03-20T05:14:22.572Z,1.27
2023-03-20T05:16:53.598Z,1.30
2023-03-20T05:19:24.176Z,1.50
2023-03-20T05:21:54.597Z,2.38
2023-03-20T05:24:25.205Z,1.10
2023-03-20T05:26:55.594Z,1.23
2023-03-20T05:29:26.546Z,1.20
2023-03-20T05:31:57.910Z,1.20
2023-03-20T05:34:30.846Z,1.20
2023-03-20T05:37:01.822Z,1.67
2023-03-20T05:39:32.456Z,1.30
2023-03-20T05:42:03.028Z,1.48
2023-03-20T05:44:33.377Z,1.35
2023-03-20T05:47:03.740Z,1.20
2023-03-20T05:49:34.415Z,1.20
2023-03-20T05:52:04.878Z,1.70
2023-03-20T05:54:35.159Z,1.55
2023-03-20T05:57:05.568Z,1.40
2023-03-20T05:59:35.971Z,1.50
2023-03-20T06:02:20.187Z,1.50
2023-03-20T06:04:50.930Z,1.50
2023-03-20T06:07:22.201Z,1.20
2023-03-20T06:09:53.680Z,1.30
2023-03-20T06:12:24.028Z,1.00
2023-03-20T06:14:54.844Z,1.17
2023-03-20T06:17:25.924Z,0.98
2023-03-20T06:19:56.630Z,1.30
2023-03-20T06:22:27.364Z,1.75
2023-03-20T06:24:59.604Z,1.25
2023-03-20T06:27:33.494Z,1.10
2023-03-20T06:30:03.842Z,1.30
2023-03-20T06:32:34.836Z,1.17
2023-03-20T06:35:07.864Z,1.42
2023-03-20T06:37:39.015Z,1.08
2023-03-20T06:40:10.975Z,0.95
2023-03-20T06:42:41.289Z,1.40
2023-03-20T06:45:13.487Z,1.00
2023-03-20T06:47:44.249Z,1.33
2023-03-20T06:50:15.559Z,1.25
2023-03-20T06:52:47.515Z,1.38
2023-03-20T06:55:17.865Z,1.20
2023-03-20T06:57:49.707Z,0.98
2023-03-20T07:00:22.131Z,1.02
2023-03-20T07:02:52.470Z,1.00
2023-03-20T07:05:22.739Z,1.02
2023-03-20T07:07:53.937Z,1.10
2023-03-20T07:10:25.793Z,0.75
2023-03-20T07:12:56.656Z,0.98
2023-03-20T07:15:27.747Z,0.70
2023-03-20T07:17:58.233Z,1.13
2023-03-20T07:20:29.538Z,0.80
2023-03-20T07:22:59.828Z,1.10
2023-03-20T07:25:41.937Z,0.80
2023-03-20T07:28:12.830Z,1.10
2023-03-20T07:30:43.622Z,1.20
2023-03-20T07:33:14.040Z,0.60
2023-03-20T07:35:44.427Z,0.77
2023-03-20T07:38:15.139Z,0.70
2023-03-20T07:40:45.381Z,1.25
2023-03-20T07:43:15.791Z,1.50
2023-03-20T07:45:53.509Z,1.23
2023-03-20T07:48:24.384Z,1.10
2023-03-20T07:50:55.599Z,0.80
2023-03-20T07:53:26.670Z,0.80
2023-03-20T07:55:57.628Z,0.82
2023-03-20T07:58:27.849Z,0.82
2023-03-20T08:01:01.168Z,0.60
2023-03-20T08:03:31.691Z,0.75
2023-03-20T08:06:02.437Z,0.70
2023-03-20T08:08:33.027Z,1.10
2023-03-20T08:11:03.832Z,1.40
2023-03-20T08:13:34.537Z,0.93
2023-03-20T08:16:05.453Z,0.80
2023-03-20T08:18:36.246Z,0.88
2023-03-20T08:21:07.479Z,0.98
2023-03-20T08:23:38.397Z,1.13
2023-03-20T08:26:08.835Z,0.95
2023-03-20T08:28:47.479Z,1.10
2023-03-20T08:31:21.186Z,1.02
2023-03-20T08:33:52.289Z,0.77
2023-03-20T08:36:23.034Z,0.77
2023-03-20T08:38:53.327Z,0.70
2023-03-20T08:41:24.251Z,1.30
2023-03-20T08:43:54.555Z,0.70
2023-03-20T08:46:24.896Z,0.63
2023-03-20T08:48:55.200Z,0.90
2023-03-20T08:51:25.475Z,0.70
2023-03-20T08:53:56.633Z,0.90
2023-03-20T08:56:28.239Z,0.70
2023-03-20T08:58:59.154Z,0.60
2023-03-20T09:01:46.038Z,1.23
2023-03-20T09:04:18.449Z,0.73
2023-03-20T09:06:48.903Z,0.60
2023-03-20T09:09:21.794Z,1.40
2023-03-20T09:11:52.557Z,1.13
2023-03-20T09:14:22.876Z,0.63
2023-03-20T09:16:53.537Z,0.47
2023-03-20T09:19:23.806Z,0.98
2023-03-20T09:21:54.068Z,0.63
2023-03-20T09:24:24.720Z,0.82
2023-03-20T09:26:55.442Z,1.30
2023-03-20T09:29:26.217Z,0.80
2023-03-20T09:31:59.206Z,0.68
2023-03-20T09:34:29.846Z,0.70
2023-03-20T09:37:01.227Z,0.40
2023-03-20T09:39:32.259Z,0.80
2023-03-20T09:42:21.506Z,0.60
2023-03-20T09:45:02.357Z,0.70
2023-03-20T09:47:36.112Z,1.15
2023-03-20T09:50:15.040Z,0.30
2023-03-20T09:52:57.178Z,0.65
2023-03-20T09:55:44.624Z,0.70
2023-03-20T09:58:40.240Z,1.10
2023-03-20T10:01:15.866Z,0.65
2023-03-20T10:04:12.420Z,0.65
2023-03-20T10:06:43.792Z,0.63
2023-03-20T10:09:23.749Z,0.70
2023-03-20T10:12:16.425Z,0.88
2023-03-20T10:14:50.118Z,0.30
2023-03-20T10:17:55.716Z,0.50
2023-03-20T10:20:55.359Z,1.05
2023-03-20T10:23:29.049Z,0.70
2023-03-20T10:26:29.765Z,0.88
2023-03-20T10:29:18.566Z,0.93
2023-03-20T10:31:57.678Z,0.80
2023-03-20T10:34:40.267Z,0.93
2023-03-20T10:37:26.301Z,1.55
2023-03-20T10:40:28.904Z,0.52
2023-03-20T10:43:06.753Z,0.95
2023-03-20T10:45:46.555Z,1.00
2023-03-20T10:48:29.028Z,0.77
2023-03-20T10:51:03.671Z,0.93
2023-03-20T10:54:05.063Z,0.93
2023-03-20T10:56:49.827Z,0.52
2023-03-20T10:59:42.157Z,0.63
2023-03-20T11:02:17.866Z,0.75
2023-03-20T11:04:49.479Z,1.37
2023-03-20T11:07:31.465Z,0.60
2023-03-20T11:10:08.549Z,0.98
2023-03-20T11:12:48.464Z,1.38
2023-03-20T11:15:24.380Z,1.00
2023-03-20T11:18:04.010Z,1.20
2023-03-20T11:20:52.009Z,0.68
2023-03-20T11:23:36.248Z,1.52
2023-03-20T11:26:11.507Z,0.90
2023-03-20T11:28:44.714Z,0.60
2023-03-20T11:31:34.647Z,1.35
2023-03-20T11:34:14.285Z,0.85
2023-03-20T11:37:10.227Z,0.75
2023-03-20T11:39:46.889Z,1.20
2023-03-20T11:42:30.012Z,1.42
2023-03-20T11:45:06.499Z,1.10
2023-03-20T11:47:38.683Z,0.82
2023-03-20T11:50:30.824Z,0.82
2023-03-20T11:53:03.286Z,0.98
2023-03-20T11:55:37.339Z,0.63
2023-03-20T11:58:10.482Z,0.80
2023-03-20T12:00:44.482Z,0.60
2023-03-20T12:04:15.916Z,0.75
2023-03-20T12:07:14.797Z,0.90
2023-03-20T12:09:48.418Z,0.80
2023-03-20T12:12:38.144Z,0.90
2023-03-20T12:15:12.021Z,0.93
2023-03-20T12:18:28.624Z,0.95
2023-03-20T12:21:04.933Z,0.77
2023-03-20T12:23:35.385Z,1.13
2023-03-20T12:26:20.670Z,1.13
2023-03-20T12:29:15.287Z,1.08
2023-03-20T12:32:08.774Z,0.80
2023-03-20T12:34:48.772Z,0.68
2023-03-20T12:37:23.653Z,0.82
2023-03-20T12:40:05.323Z,0.70
2023-03-20T12:42:42.448Z,0.90
2023-03-20T12:45:46.066Z,1.08
2023-03-20T12:48:24.565Z,0.90
2023-03-20T12:51:49.143Z,1.17
2023-03-20T12:54:43.804Z,1.10
2023-03-20T12:57:29.788Z,0.60
2023-03-20T13:00:00.122Z,1.38
2023-03-20T13:02:46.297Z,0.70
2023-03-20T13:05:25.707Z,1.10
2023-03-20T13:08:18.202Z,0.77
2023-03-20T13:10:57.934Z,0.70
2023-03-20T13:13:49.433Z,0.73
2023-03-20T13:16:23.070Z,0.98
2023-03-20T13:19:13.153Z,1.20
2023-03-20T13:22:00.145Z,0.88
2023-03-20T13:24:40.446Z,1.02
2023-03-20T13:27:15.674Z,0.90
2023-03-20T13:29:55.783Z,0.73
2023-03-20T13:32:46.304Z,1.15
2023-03-20T13:35:28.241Z,1.48
2023-03-20T13:38:09.176Z,0.60
2023-03-20T13:40:45.983Z,1.20
2023-03-20T13:43:32.255Z,0.82
2023-03-20T13:46:14.065Z,1.20
2023-03-20T13:48:46.539Z,0.93
2023-03-20T13:51:24.483Z,1.23
2023-03-20T13:54:02.849Z,0.70
2023-03-20T13:56:48.791Z,0.90
2023-03-20T14:00:00.535Z,0.95
2023-03-20T14:02:49.049Z,0.63
2023-03-20T14:05:26.154Z,1.00
2023-03-20T14:08:02.484Z,0.80
2023-03-20T14:10:36.278Z,0.77
2023-03-20T14:13:14.014Z,0.85
2023-03-20T14:15:53.460Z,1.10
2023-03-20T14:18:29.440Z,0.98
2023-03-20T14:21:13.995Z,1.33
2023-03-20T14:24:03.111Z,0.60
2023-03-20T14:26:40.396Z,1.00
2023-03-20T14:29:13.732Z,0.60
2023-03-20T14:31:46.819Z,1.58
2023-03-20T14:34:23.384Z,1.30
2023-03-20T14:37:05.474Z,1.15
2023-03-20T14:39:52.373Z,1.05
2023-03-20T14:42:54.313Z,0.68
2023-03-20T14:45:25.005Z,0.77
2023-03-20T14:48:07.811Z,0.65
2023-03-20T14:50:57.430Z,0.50
2023-03-20T14:53:34.037Z,0.60
2023-03-20T14:56:17.131Z,0.60
2023-03-20T14:59:00.177Z,0.88
2023-03-20T15:01:42.818Z,0.70
2023-03-20T15:04:17.135Z,0.88
2023-03-20T15:07:16.932Z,0.88
2023-03-20T15:09:51.177Z,0.77
2023-03-20T15:12:28.559Z,0.60
2023-03-20T15:15:03.009Z,0.38
2023-03-20T15:17:43.468Z,0.30
2023-03-20T15:20:32.781Z,0.43
2023-03-20T15:23:04.818Z,0.40
2023-03-20T15:25:52.998Z,1.15
2023-03-20T15:28:29.252Z,0.20
2023-03-20T15:31:03.585Z,0.47
2023-03-20T15:33:40.081Z,0.30
2023-03-20T15:36:20.851Z,0.52
2023-03-20T15:38:54.889Z,0.15
2023-03-20T15:41:40.662Z,0.28
2023-03-20T15:44:26.019Z,0.30
2023-03-20T15:47:01.140Z,0.10
2023-03-20T15:49:37.267Z,0.20
2023-03-20T15:52:23.254Z,0.70
2023-03-20T15:54:54.216Z,0.20
2023-03-20T15:57:40.075Z,0.10
2023-03-20T16:00:20.341Z,0.20
2023-03-20T16:02:51.747Z,0.15
2023-03-20T16:05:26.793Z,0.20
2023-03-20T16:07:58.367Z,0.30
2023-03-20T16:10:40.044Z,0.30
2023-03-20T16:13:14.870Z,0.25
2023-03-20T16:15:45.804Z,0.35
2023-03-20T16:18:23.440Z,0.20
2023-03-20T16:21:01.261Z,0.15
2023-03-20T16:23:43.674Z,0.40
2023-03-20T16:26:25.449Z,0.10
2023-03-20T16:29:04.159Z,0.10
2023-03-20T16:31:36.741Z,0.17
2023-03-20T16:34:17.678Z,0.25
2023-03-20T16:37:04.667Z,0.20
2023-03-20T16:39:36.494Z,0.10
2023-03-20T16:42:13.913Z,0.10
2023-03-20T16:44:45.397Z,0.10
2023-03-20T16:47:22.361Z,0.08
2023-03-20T16:49:58.247Z,0.50
2023-03-20T16:52:32.798Z,0.10
2023-03-20T16:55:05.265Z,0.10
2023-03-20T16:57:40.127Z,0.10
2023-03-20T17:00:30.241Z,0.03
2023-03-20T17:03:18.522Z,0.00
2023-03-20T17:06:08.930Z,0.00
2023-03-20T17:08:47.874Z,0.15
2023-03-20T17:11:25.627Z,0.10
2023-03-20T17:13:55.937Z,0.10
2023-03-20T17:16:27.931Z,0.00
2023-03-20T17:19:23.150Z,0.00
2023-03-20T17:21:53.964Z,0.47
2023-03-20T17:24:24.305Z,0.00
2023-03-20T17:26:59.273Z,0.00
2023-03-20T17:29:29.702Z,0.00
2023-03-20T17:32:00.158Z,0.08
2023-03-20T17:34:30.558Z,0.20
2023-03-20T17:37:05.421Z,0.08
2023-03-20T17:39:36.027Z,0.00
2023-03-20T17:42:08.080Z,0.00
2023-03-20T17:44:38.910Z,0.00
2023-03-20T17:47:11.784Z,0.00
2023-03-20T17:49:42.417Z,0.00
2023-03-20T17:52:21.469Z,0.00
2023-03-20T17:54:52.020Z,0.10
2023-03-20T17:57:28.242Z,0.00
2023-03-20T17:59:58.962Z,0.00
2023-03-20T18:02:29.595Z,0.00
2023-03-20T18:04:59.909Z,0.10
2023-03-20T18:07:30.547Z,0.00
2023-03-20T18:10:01.027Z,0.00
2023-03-20T18:12:31.244Z,0.00
2023-03-20T18:15:01.504Z,0.00
2023-03-20T18:17:32.348Z,0.10
2023-03-20T18:20:02.662Z,0.00
2023-03-20T18:22:34.387Z,0.10
2023-03-20T18:25:04.685Z,0.52
2023-03-20T18:27:34.904Z,0.08
2023-03-20T18:30:05.255Z,0.10
2023-03-20T18:32:35.976Z,0.10
2023-03-20T18:35:06.427Z,0.10
2023-03-20T18:37:37.150Z,0.10
2023-03-20T18:40:10.653Z,0.15
2023-03-20T18:42:40.939Z,0.10
2023-03-20T18:45:11.694Z,0.00
2023-03-20T18:47:42.693Z,0.10
2023-03-20T18:50:22.246Z,0.10
2023-03-20T18:52:53.520Z,0.10
2023-03-20T18:55:24.926Z,0.20
2023-03-20T18:57:55.467Z,0.45
2023-03-20T19:00:38.048Z,0.10
2023-03-20T19:03:14.709Z,0.30
2023-03-20T19:05:45.172Z,0.10
2023-03-20T19:08:21.870Z,0.20
2023-03-20T19:10:55.038Z,0.20
2023-03-20T19:13:26.901Z,0.10
2023-03-20T19:15:57.799Z,0.10
2023-03-20T19:18:29.477Z,0.40
2023-03-20T19:21:01.042Z,0.17
2023-03-20T19:23:31.788Z,0.20
2023-03-20T19:26:02.051Z,0.75
2023-03-20T19:28:41.263Z,0.95
2023-03-20T19:31:13.108Z,0.60
2023-03-20T19:33:44.339Z,0.20
2023-03-20T19:36:32.179Z,0.32
2023-03-20T19:39:04.050Z,0.50
2023-03-20T19:41:34.826Z,0.77
2023-03-20T19:44:06.405Z,0.40
2023-03-20T19:46:40.769Z,0.20
2023-03-20T19:49:30.757Z,0.40
2023-03-20T19:52:02.139Z,0.82
2023-03-20T19:54:33.026Z,0.20
2023-03-20T19:57:04.196Z,0.88
2023-03-20T19:59:34.789Z,0.40
2023-03-20T20:02:05.225Z,0.45
2023-03-20T20:04:35.605Z,0.50
2023-03-20T20:07:41.184Z,0.20
2023-03-20T20:09:57.156Z,0.30
2023-03-20T20:12:27.810Z,0.43
2023-03-20T20:14:59.151Z,0.40
2023-03-20T20:17:30.096Z,0.57
2023-03-20T20:20:01.394Z,0.25
2023-03-20T20:22:31.967Z,0.30
2023-03-20T20:25:04.178Z,0.32
2023-03-20T20:27:35.081Z,0.60
2023-03-20T20:30:08.426Z,0.30
2023-03-20T20:32:40.796Z,0.30
2023-03-20T20:35:43.583Z,0.40
2023-03-20T20:40:57.274Z,0.38
2023-03-20T20:43:59.482Z,0.20
2023-03-20T20:46:19.523Z,0.57
2023-03-20T20:48:51.174Z,0.55
2023-03-20T20:51:22.903Z,0.20
2023-03-20T20:53:54.081Z,0.32
2023-03-20T20:56:26.123Z,0.10
2023-03-20T20:58:59.636Z,0.32
2023-03-20T21:01:30.388Z,0.10
2023-03-20T21:04:00.668Z,0.10
2023-03-20T21:07:03.522Z,0.05
2023-03-20T21:09:22.771Z,0.13
2023-03-20T21:11:53.092Z,0.10
2023-03-20T21:14:23.880Z,0.10
2023-03-20T21:16:55.022Z,0.10
2023-03-20T21:19:26.615Z,0.00
2023-03-20T21:22:00.982Z,0.03
2023-03-20T21:24:34.680Z,0.20
2023-03-20T21:27:09.658Z,0.05
2023-03-20T21:29:41.048Z,0.15
2023-03-20T21:32:14.947Z,0.00
2023-03-20T21:34:45.952Z,0.00
2023-03-20T21:40:11.763Z,0.00
2023-03-20T21:42:42.536Z,0.00
2023-03-20T21:46:10.844Z,0.00
2023-03-20T21:48:42.396Z,0.00
2023-03-20T21:51:39.915Z,0.00
2023-03-20T21:54:43.908Z,0.10
2023-03-20T21:57:11.297Z,0.00
2023-03-20T22:02:26.515Z,0.00
2023-03-20T22:05:41.959Z,0.00
2023-03-20T22:08:30.601Z,0.00
2023-03-20T22:11:31.576Z,0.00
2023-03-20T22:14:25.192Z,0.30
2023-03-20T22:20:02.838Z,0.00
2023-03-20T22:25:46.568Z,0.00
2023-03-20T22:28:22.484Z,0.00
2023-03-20T22:39:50.839Z,0.00
2023-03-20T22:42:40.409Z,0.00
2023-03-20T22:45:00.552Z,0.20
2023-03-20T22:47:32.501Z,0.00
2023-03-20T22:50:02.959Z,0.00
2023-03-20T22:52:49.864Z,0.00
2023-03-20T22:55:20.915Z,0.00
2023-03-20T22:58:05.889Z,0.00
2023-03-20T23:00:38.883Z,0.00
2023-03-20T23:06:01.057Z,0.20
2023-03-20T23:08:36.268Z,0.00
2023-03-20T23:11:14.374Z,0.45
2023-03-20T23:13:45.583Z,0.00
2023-03-20T23:16:17.632Z,0.03
2023-03-20T23:18:48.393Z,0.17
2023-03-20T23:21:19.123Z,0.55
2023-03-20T23:23:49.350Z,1.60
2023-03-20T23:26:22.726Z,1.30
2023-03-20T23:28:54.986Z,0.43
2023-03-20T23:31:28.609Z,0.20
2023-03-20T23:34:00.367Z,0.30
2023-03-20T23:36:36.844Z,0.20
2023-03-20T23:39:10.089Z,0.65
2023-03-20T23:42:05.102Z,0.50
2023-03-20T23:44:31.071Z,0.47
2023-03-20T23:47:05.716Z,0.20
2023-03-20T23:49:43.558Z,0.30
2023-03-20T23:52:14.833Z,0.30
2023-03-20T23:54:45.517Z,0.77
2023-03-20T23:57:15.993Z,1.98
2023-03-20T23:59:46.715Z,2.00
